sensor_id;sensor_type;location;lat;lon;timestamp;P1;durP1;ratioP1;P2;durP2;ratioP2
5499;SDS011;2772;42.700;23.304;2024-02-16T00:01:57;28.47;;;11.70;;
5499;SDS011;2772;42.700;23.304;2024-02-16T00:04:24;22.07;;;12.20;;
5499;SDS011;2772;42.700;23.304;2024-02-16T00:06:50;19.73;;;11.03;;
5499;SDS011;2772;42.700;23.304;2024-02-16T00:09:18;23.77;;;12.07;;
5499;SDS011;2772;42.700;23.304;2024-02-16T00:11:45;22.70;;;12.10;;
5499;SDS011;2772;42.700;23.304;2024-02-16T00:14:13;28.23;;;13.30;;
5499;SDS011;2772;42.700;23.304;2024-02-16T00:16:40;26.43;;;13.17;;
5499;SDS011;2772;42.700;23.304;2024-02-16T00:19:06;30.10;;;14.60;;
5499;SDS011;2772;42.700;23.304;2024-02-16T00:21:33;36.70;;;15.20;;
5499;SDS011;2772;42.700;23.304;2024-02-16T00:24:00;28.80;;;12.77;;
5499;SDS011;2772;42.700;23.304;2024-02-16T00:26:29;28.90;;;12.40;;
5499;SDS011;2772;42.700;23.304;2024-02-16T00:28:56;25.40;;;12.53;;
5499;SDS011;2772;42.700;23.304;2024-02-16T00:31:22;25.77;;;11.30;;
5499;SDS011;2772;42.700;23.304;2024-02-16T00:33:49;18.13;;;9.90;;
5499;SDS011;2772;42.700;23.304;2024-02-16T00:36:16;21.37;;;11.00;;
5499;SDS011;2772;42.700;23.304;2024-02-16T00:38:42;19.77;;;10.77;;
5499;SDS011;2772;42.700;23.304;2024-02-16T00:41:16;21.63;;;10.30;;
5499;SDS011;2772;42.700;23.304;2024-02-16T00:43:44;17.57;;;10.40;;
5499;SDS011;2772;42.700;23.304;2024-02-16T00:46:11;19.90;;;10.60;;
5499;SDS011;2772;42.700;23.304;2024-02-16T00:48:40;21.73;;;10.73;;
5499;SDS011;2772;42.700;23.304;2024-02-16T00:51:07;22.60;;;11.37;;
5499;SDS011;2772;42.700;23.304;2024-02-16T00:53:33;25.80;;;11.00;;
5499;SDS011;2772;42.700;23.304;2024-02-16T00:56:00;27.30;;;11.47;;
5499;SDS011;2772;42.700;23.304;2024-02-16T00:58:28;19.20;;;10.90;;
5499;SDS011;2772;42.700;23.304;2024-02-16T01:00:56;26.83;;;11.60;;
5499;SDS011;2772;42.700;23.304;2024-02-16T01:03:22;22.77;;;11.80;;
5499;SDS011;2772;42.700;23.304;2024-02-16T01:05:51;21.97;;;11.63;;
5499;SDS011;2772;42.700;23.304;2024-02-16T01:08:18;17.90;;;10.03;;
5499;SDS011;2772;42.700;23.304;2024-02-16T01:10:44;21.67;;;11.47;;
5499;SDS011;2772;42.700;23.304;2024-02-16T01:13:11;20.20;;;10.80;;
5499;SDS011;2772;42.700;23.304;2024-02-16T01:15:38;18.27;;;10.40;;
5499;SDS011;2772;42.700;23.304;2024-02-16T01:18:07;22.27;;;12.20;;
5499;SDS011;2772;42.700;23.304;2024-02-16T01:20:34;22.33;;;12.60;;
5499;SDS011;2772;42.700;23.304;2024-02-16T01:23:01;22.37;;;11.37;;
5499;SDS011;2772;42.700;23.304;2024-02-16T01:25:30;20.80;;;11.00;;
5499;SDS011;2772;42.700;23.304;2024-02-16T01:27:57;25.60;;;12.10;;
5499;SDS011;2772;42.700;23.304;2024-02-16T01:30:24;24.70;;;11.20;;
5499;SDS011;2772;42.700;23.304;2024-02-16T01:32:50;24.07;;;11.83;;
5499;SDS011;2772;42.700;23.304;2024-02-16T01:35:19;19.67;;;10.80;;
5499;SDS011;2772;42.700;23.304;2024-02-16T01:37:45;22.20;;;9.80;;
5499;SDS011;2772;42.700;23.304;2024-02-16T01:40:12;19.27;;;10.27;;
5499;SDS011;2772;42.700;23.304;2024-02-16T01:42:42;20.30;;;10.37;;
5499;SDS011;2772;42.700;23.304;2024-02-16T01:45:09;15.67;;;8.90;;
5499;SDS011;2772;42.700;23.304;2024-02-16T01:47:37;16.53;;;9.80;;
5499;SDS011;2772;42.700;23.304;2024-02-16T01:50:05;18.87;;;9.97;;
5499;SDS011;2772;42.700;23.304;2024-02-16T01:52:34;15.33;;;9.23;;
5499;SDS011;2772;42.700;23.304;2024-02-16T01:55:02;21.10;;;9.90;;
5499;SDS011;2772;42.700;23.304;2024-02-16T01:57:30;17.07;;;8.80;;
5499;SDS011;2772;42.700;23.304;2024-02-16T01:59:58;14.23;;;9.10;;
5499;SDS011;2772;42.700;23.304;2024-02-16T02:02:24;15.27;;;8.93;;
5499;SDS011;2772;42.700;23.304;2024-02-16T02:04:53;14.60;;;8.80;;
5499;SDS011;2772;42.700;23.304;2024-02-16T02:07:24;16.43;;;9.03;;
5499;SDS011;2772;42.700;23.304;2024-02-16T02:09:53;16.40;;;9.20;;
5499;SDS011;2772;42.700;23.304;2024-02-16T02:12:21;12.70;;;8.10;;
5499;SDS011;2772;42.700;23.304;2024-02-16T02:14:48;15.27;;;8.83;;
5499;SDS011;2772;42.700;23.304;2024-02-16T02:17:15;18.90;;;9.50;;
5499;SDS011;2772;42.700;23.304;2024-02-16T02:19:42;15.20;;;8.30;;
5499;SDS011;2772;42.700;23.304;2024-02-16T02:22:12;16.07;;;8.70;;
5499;SDS011;2772;42.700;23.304;2024-02-16T02:24:40;22.00;;;9.60;;
5499;SDS011;2772;42.700;23.304;2024-02-16T02:27:07;17.57;;;9.67;;
5499;SDS011;2772;42.700;23.304;2024-02-16T02:29:34;17.20;;;8.80;;
5499;SDS011;2772;42.700;23.304;2024-02-16T02:32:01;13.77;;;8.17;;
5499;SDS011;2772;42.700;23.304;2024-02-16T02:34:27;16.00;;;8.13;;
5499;SDS011;2772;42.700;23.304;2024-02-16T02:36:54;15.43;;;9.30;;
5499;SDS011;2772;42.700;23.304;2024-02-16T02:39:22;13.40;;;8.33;;
5499;SDS011;2772;42.700;23.304;2024-02-16T02:41:49;24.97;;;9.57;;
5499;SDS011;2772;42.700;23.304;2024-02-16T02:44:16;16.80;;;9.57;;
5499;SDS011;2772;42.700;23.304;2024-02-16T02:46:44;15.40;;;9.90;;
5499;SDS011;2772;42.700;23.304;2024-02-16T02:49:11;15.10;;;9.37;;
5499;SDS011;2772;42.700;23.304;2024-02-16T02:51:38;21.00;;;10.27;;
5499;SDS011;2772;42.700;23.304;2024-02-16T02:54:04;14.07;;;8.20;;
5499;SDS011;2772;42.700;23.304;2024-02-16T02:56:32;13.50;;;8.73;;
5499;SDS011;2772;42.700;23.304;2024-02-16T02:58:59;16.47;;;8.47;;
5499;SDS011;2772;42.700;23.304;2024-02-16T03:01:26;17.33;;;9.23;;
5499;SDS011;2772;42.700;23.304;2024-02-16T03:03:53;12.50;;;7.93;;
5499;SDS011;2772;42.700;23.304;2024-02-16T03:06:20;24.80;;;10.60;;
5499;SDS011;2772;42.700;23.304;2024-02-16T03:08:48;17.00;;;10.83;;
5499;SDS011;2772;42.700;23.304;2024-02-16T03:11:15;19.33;;;10.13;;
5499;SDS011;2772;42.700;23.304;2024-02-16T03:13:43;13.80;;;9.03;;
5499;SDS011;2772;42.700;23.304;2024-02-16T03:16:10;19.43;;;9.63;;
5499;SDS011;2772;42.700;23.304;2024-02-16T03:18:37;14.80;;;9.10;;
5499;SDS011;2772;42.700;23.304;2024-02-16T03:21:04;16.60;;;10.13;;
5499;SDS011;2772;42.700;23.304;2024-02-16T03:23:32;16.60;;;9.33;;
5499;SDS011;2772;42.700;23.304;2024-02-16T03:25:59;21.00;;;10.60;;
5499;SDS011;2772;42.700;23.304;2024-02-16T03:28:26;26.07;;;11.20;;
5499;SDS011;2772;42.700;23.304;2024-02-16T03:30:54;22.07;;;10.70;;
5499;SDS011;2772;42.700;23.304;2024-02-16T03:33:21;30.23;;;13.57;;
5499;SDS011;2772;42.700;23.304;2024-02-16T03:35:48;25.67;;;13.00;;
5499;SDS011;2772;42.700;23.304;2024-02-16T03:38:15;20.13;;;10.70;;
5499;SDS011;2772;42.700;23.304;2024-02-16T03:40:41;25.03;;;11.97;;
5499;SDS011;2772;42.700;23.304;2024-02-16T03:43:08;22.93;;;11.53;;
5499;SDS011;2772;42.700;23.304;2024-02-16T03:45:36;27.27;;;13.00;;
5499;SDS011;2772;42.700;23.304;2024-02-16T03:48:05;27.47;;;11.90;;
5499;SDS011;2772;42.700;23.304;2024-02-16T03:50:32;19.00;;;10.63;;
5499;SDS011;2772;42.700;23.304;2024-02-16T03:53:00;19.50;;;11.50;;
5499;SDS011;2772;42.700;23.304;2024-02-16T03:55:27;19.13;;;10.43;;
5499;SDS011;2772;42.700;23.304;2024-02-16T03:57:54;16.57;;;10.40;;
5499;SDS011;2772;42.700;23.304;2024-02-16T04:00:20;23.83;;;11.60;;
5499;SDS011;2772;42.700;23.304;2024-02-16T04:02:47;20.93;;;11.27;;
5499;SDS011;2772;42.700;23.304;2024-02-16T04:05:15;24.80;;;10.83;;
5499;SDS011;2772;42.700;23.304;2024-02-16T04:07:42;22.63;;;10.57;;
5499;SDS011;2772;42.700;23.304;2024-02-16T04:10:09;25.87;;;11.20;;
5499;SDS011;2772;42.700;23.304;2024-02-16T04:12:36;41.15;;;11.50;;
5499;SDS011;2772;42.700;23.304;2024-02-16T04:15:03;20.97;;;10.27;;
5499;SDS011;2772;42.700;23.304;2024-02-16T04:17:30;18.03;;;8.93;;
5499;SDS011;2772;42.700;23.304;2024-02-16T04:19:57;20.63;;;10.80;;
5499;SDS011;2772;42.700;23.304;2024-02-16T04:22:25;19.77;;;10.20;;
5499;SDS011;2772;42.700;23.304;2024-02-16T04:24:52;19.23;;;11.00;;
5499;SDS011;2772;42.700;23.304;2024-02-16T04:27:18;22.53;;;10.23;;
5499;SDS011;2772;42.700;23.304;2024-02-16T04:29:45;17.67;;;9.90;;
5499;SDS011;2772;42.700;23.304;2024-02-16T04:32:12;24.57;;;11.23;;
5499;SDS011;2772;42.700;23.304;2024-02-16T04:34:38;19.83;;;10.17;;
5499;SDS011;2772;42.700;23.304;2024-02-16T04:37:05;19.00;;;9.90;;
5499;SDS011;2772;42.700;23.304;2024-02-16T04:39:33;21.20;;;10.00;;
5499;SDS011;2772;42.700;23.304;2024-02-16T04:42:00;28.30;;;9.90;;
5499;SDS011;2772;42.700;23.304;2024-02-16T04:44:27;23.00;;;10.97;;
5499;SDS011;2772;42.700;23.304;2024-02-16T04:46:54;22.23;;;9.07;;
5499;SDS011;2772;42.700;23.304;2024-02-16T04:49:20;18.03;;;10.00;;
5499;SDS011;2772;42.700;23.304;2024-02-16T04:51:47;23.23;;;10.10;;
5499;SDS011;2772;42.700;23.304;2024-02-16T04:54:14;23.37;;;9.67;;
5499;SDS011;2772;42.700;23.304;2024-02-16T04:56:42;18.90;;;9.10;;
5499;SDS011;2772;42.700;23.304;2024-02-16T04:59:09;18.20;;;9.80;;
5499;SDS011;2772;42.700;23.304;2024-02-16T05:01:36;19.40;;;9.90;;
5499;SDS011;2772;42.700;23.304;2024-02-16T05:04:02;24.17;;;10.90;;
5499;SDS011;2772;42.700;23.304;2024-02-16T05:06:30;22.20;;;9.57;;
5499;SDS011;2772;42.700;23.304;2024-02-16T05:08:56;17.70;;;9.47;;
5499;SDS011;2772;42.700;23.304;2024-02-16T05:11:23;22.83;;;10.73;;
5499;SDS011;2772;42.700;23.304;2024-02-16T05:13:52;19.40;;;10.13;;
5499;SDS011;2772;42.700;23.304;2024-02-16T05:16:19;18.97;;;9.80;;
5499;SDS011;2772;42.700;23.304;2024-02-16T05:18:45;16.53;;;9.87;;
5499;SDS011;2772;42.700;23.304;2024-02-16T05:21:12;21.80;;;9.00;;
5499;SDS011;2772;42.700;23.304;2024-02-16T05:23:39;19.67;;;9.93;;
5499;SDS011;2772;42.700;23.304;2024-02-16T05:26:06;21.17;;;9.77;;
5499;SDS011;2772;42.700;23.304;2024-02-16T05:28:32;20.13;;;10.50;;
5499;SDS011;2772;42.700;23.304;2024-02-16T05:31:03;21.03;;;10.37;;
5499;SDS011;2772;42.700;23.304;2024-02-16T05:33:39;21.90;;;11.33;;
5499;SDS011;2772;42.700;23.304;2024-02-16T05:36:06;19.10;;;9.67;;
5499;SDS011;2772;42.700;23.304;2024-02-16T05:38:34;19.00;;;10.50;;
5499;SDS011;2772;42.700;23.304;2024-02-16T05:41:05;17.83;;;9.90;;
5499;SDS011;2772;42.700;23.304;2024-02-16T05:43:33;33.93;;;11.70;;
5499;SDS011;2772;42.700;23.304;2024-02-16T05:46:00;21.57;;;10.60;;
5499;SDS011;2772;42.700;23.304;2024-02-16T05:48:28;24.53;;;12.20;;
5499;SDS011;2772;42.700;23.304;2024-02-16T05:50:56;23.97;;;12.40;;
5499;SDS011;2772;42.700;23.304;2024-02-16T05:53:25;19.73;;;11.37;;
5499;SDS011;2772;42.700;23.304;2024-02-16T05:55:53;21.33;;;10.80;;
5499;SDS011;2772;42.700;23.304;2024-02-16T05:58:20;20.10;;;10.50;;
5499;SDS011;2772;42.700;23.304;2024-02-16T06:00:48;32.33;;;10.17;;
5499;SDS011;2772;42.700;23.304;2024-02-16T06:03:16;23.90;;;11.53;;
5499;SDS011;2772;42.700;23.304;2024-02-16T06:05:43;34.13;;;11.17;;
5499;SDS011;2772;42.700;23.304;2024-02-16T06:08:10;20.40;;;11.10;;
5499;SDS011;2772;42.700;23.304;2024-02-16T06:10:37;20.67;;;10.60;;
5499;SDS011;2772;42.700;23.304;2024-02-16T06:13:04;20.77;;;12.10;;
5499;SDS011;2772;42.700;23.304;2024-02-16T06:15:32;25.87;;;13.10;;
5499;SDS011;2772;42.700;23.304;2024-02-16T06:17:59;25.30;;;12.07;;
5499;SDS011;2772;42.700;23.304;2024-02-16T06:20:28;37.47;;;13.63;;
5499;SDS011;2772;42.700;23.304;2024-02-16T06:22:55;23.67;;;13.13;;
5499;SDS011;2772;42.700;23.304;2024-02-16T06:25:21;36.57;;;13.67;;
5499;SDS011;2772;42.700;23.304;2024-02-16T06:27:51;30.57;;;13.23;;
5499;SDS011;2772;42.700;23.304;2024-02-16T06:30:18;32.60;;;13.83;;
5499;SDS011;2772;42.700;23.304;2024-02-16T06:32:45;29.50;;;13.53;;
5499;SDS011;2772;42.700;23.304;2024-02-16T06:35:12;40.50;;;14.70;;
5499;SDS011;2772;42.700;23.304;2024-02-16T06:37:40;30.90;;;13.13;;
5499;SDS011;2772;42.700;23.304;2024-02-16T06:40:07;24.40;;;13.40;;
5499;SDS011;2772;42.700;23.304;2024-02-16T06:42:35;32.43;;;12.47;;
5499;SDS011;2772;42.700;23.304;2024-02-16T06:45:02;27.53;;;12.60;;
5499;SDS011;2772;42.700;23.304;2024-02-16T06:47:30;29.07;;;12.87;;
5499;SDS011;2772;42.700;23.304;2024-02-16T06:49:57;27.73;;;15.00;;
5499;SDS011;2772;42.700;23.304;2024-02-16T06:52:23;40.23;;;15.20;;
5499;SDS011;2772;42.700;23.304;2024-02-16T06:54:52;31.80;;;15.67;;
5499;SDS011;2772;42.700;23.304;2024-02-16T06:57:18;27.40;;;16.13;;
5499;SDS011;2772;42.700;23.304;2024-02-16T06:59:46;27.10;;;14.73;;
5499;SDS011;2772;42.700;23.304;2024-02-16T07:02:15;30.20;;;12.40;;
5499;SDS011;2772;42.700;23.304;2024-02-16T07:04:43;25.03;;;11.73;;
5499;SDS011;2772;42.700;23.304;2024-02-16T07:07:10;16.70;;;10.10;;
5499;SDS011;2772;42.700;23.304;2024-02-16T07:09:37;12.00;;;7.70;;
5499;SDS011;2772;42.700;23.304;2024-02-16T07:12:08;11.87;;;7.10;;
5499;SDS011;2772;42.700;23.304;2024-02-16T07:14:37;18.13;;;7.57;;
5499;SDS011;2772;42.700;23.304;2024-02-16T07:17:04;23.03;;;9.13;;
5499;SDS011;2772;42.700;23.304;2024-02-16T07:19:34;18.27;;;8.83;;
5499;SDS011;2772;42.700;23.304;2024-02-16T07:22:01;13.83;;;7.87;;
5499;SDS011;2772;42.700;23.304;2024-02-16T07:24:27;13.50;;;9.47;;
5499;SDS011;2772;42.700;23.304;2024-02-16T07:26:54;11.87;;;7.53;;
5499;SDS011;2772;42.700;23.304;2024-02-16T07:29:22;19.93;;;8.10;;
5499;SDS011;2772;42.700;23.304;2024-02-16T07:31:49;21.30;;;9.57;;
5499;SDS011;2772;42.700;23.304;2024-02-16T07:34:17;15.50;;;8.67;;
5499;SDS011;2772;42.700;23.304;2024-02-16T07:36:44;25.97;;;9.53;;
5499;SDS011;2772;42.700;23.304;2024-02-16T07:39:10;23.67;;;9.20;;
5499;SDS011;2772;42.700;23.304;2024-02-16T07:41:37;15.97;;;9.80;;
5499;SDS011;2772;42.700;23.304;2024-02-16T07:44:04;19.20;;;9.40;;
5499;SDS011;2772;42.700;23.304;2024-02-16T07:46:32;21.87;;;9.47;;
5499;SDS011;2772;42.700;23.304;2024-02-16T07:49:00;29.57;;;11.10;;
5499;SDS011;2772;42.700;23.304;2024-02-16T07:51:29;18.77;;;10.13;;
5499;SDS011;2772;42.700;23.304;2024-02-16T07:53:55;18.23;;;9.27;;
5499;SDS011;2772;42.700;23.304;2024-02-16T07:56:22;30.30;;;10.93;;
5499;SDS011;2772;42.700;23.304;2024-02-16T07:58:49;24.23;;;11.53;;
5499;SDS011;2772;42.700;23.304;2024-02-16T08:01:15;22.60;;;10.50;;
5499;SDS011;2772;42.700;23.304;2024-02-16T08:03:43;23.97;;;11.87;;
5499;SDS011;2772;42.700;23.304;2024-02-16T08:06:10;27.50;;;12.33;;
5499;SDS011;2772;42.700;23.304;2024-02-16T08:08:37;24.23;;;13.47;;
5499;SDS011;2772;42.700;23.304;2024-02-16T08:11:03;24.30;;;13.13;;
5499;SDS011;2772;42.700;23.304;2024-02-16T08:13:30;29.23;;;13.40;;
5499;SDS011;2772;42.700;23.304;2024-02-16T08:15:57;30.27;;;15.00;;
5499;SDS011;2772;42.700;23.304;2024-02-16T08:18:23;25.17;;;13.73;;
5499;SDS011;2772;42.700;23.304;2024-02-16T08:20:52;28.30;;;14.67;;
5499;SDS011;2772;42.700;23.304;2024-02-16T08:23:18;34.17;;;15.67;;
5499;SDS011;2772;42.700;23.304;2024-02-16T08:25:45;28.00;;;14.75;;
5499;SDS011;2772;42.700;23.304;2024-02-16T08:28:12;24.60;;;14.90;;
5499;SDS011;2772;42.700;23.304;2024-02-16T08:30:39;34.53;;;16.83;;
5499;SDS011;2772;42.700;23.304;2024-02-16T08:33:06;26.20;;;13.73;;
5499;SDS011;2772;42.700;23.304;2024-02-16T08:35:33;29.13;;;14.83;;
5499;SDS011;2772;42.700;23.304;2024-02-16T08:38:01;27.70;;;13.83;;
5499;SDS011;2772;42.700;23.304;2024-02-16T08:40:28;25.40;;;13.97;;
5499;SDS011;2772;42.700;23.304;2024-02-16T08:42:55;29.57;;;15.17;;
5499;SDS011;2772;42.700;23.304;2024-02-16T08:45:22;26.03;;;13.30;;
5499;SDS011;2772;42.700;23.304;2024-02-16T08:47:49;29.57;;;13.67;;
5499;SDS011;2772;42.700;23.304;2024-02-16T08:50:16;28.13;;;13.30;;
5499;SDS011;2772;42.700;23.304;2024-02-16T08:52:42;29.60;;;12.83;;
5499;SDS011;2772;42.700;23.304;2024-02-16T08:55:11;21.47;;;11.97;;
5499;SDS011;2772;42.700;23.304;2024-02-16T08:57:38;27.10;;;13.63;;
5499;SDS011;2772;42.700;23.304;2024-02-16T09:00:05;27.13;;;13.03;;
5499;SDS011;2772;42.700;23.304;2024-02-16T09:02:33;29.10;;;13.87;;
5499;SDS011;2772;42.700;23.304;2024-02-16T09:05:00;22.63;;;12.77;;
5499;SDS011;2772;42.700;23.304;2024-02-16T09:07:27;24.53;;;11.70;;
5499;SDS011;2772;42.700;23.304;2024-02-16T09:09:56;18.97;;;11.57;;
5499;SDS011;2772;42.700;23.304;2024-02-16T09:12:25;20.47;;;10.30;;
5499;SDS011;2772;42.700;23.304;2024-02-16T09:14:55;20.20;;;11.10;;
5499;SDS011;2772;42.700;23.304;2024-02-16T09:17:22;25.40;;;10.70;;
5499;SDS011;2772;42.700;23.304;2024-02-16T09:19:49;17.33;;;7.83;;
5499;SDS011;2772;42.700;23.304;2024-02-16T09:22:15;16.27;;;8.70;;
5499;SDS011;2772;42.700;23.304;2024-02-16T09:24:44;14.83;;;8.47;;
5499;SDS011;2772;42.700;23.304;2024-02-16T09:27:12;10.83;;;6.70;;
5499;SDS011;2772;42.700;23.304;2024-02-16T09:29:40;17.17;;;6.63;;
5499;SDS011;2772;42.700;23.304;2024-02-16T09:32:07;7.88;;;5.50;;
5499;SDS011;2772;42.700;23.304;2024-02-16T09:34:33;11.77;;;7.73;;
5499;SDS011;2772;42.700;23.304;2024-02-16T09:37:00;14.43;;;8.47;;
5499;SDS011;2772;42.700;23.304;2024-02-16T09:39:28;5.40;;;4.90;;
5499;SDS011;2772;42.700;23.304;2024-02-16T09:41:55;14.97;;;5.90;;
5499;SDS011;2772;42.700;23.304;2024-02-16T09:44:23;8.57;;;5.20;;
5499;SDS011;2772;42.700;23.304;2024-02-16T09:46:52;8.53;;;6.10;;
5499;SDS011;2772;42.700;23.304;2024-02-16T09:49:20;8.57;;;6.40;;
5499;SDS011;2772;42.700;23.304;2024-02-16T09:51:47;10.30;;;6.23;;
5499;SDS011;2772;42.700;23.304;2024-02-16T09:54:14;5.50;;;4.80;;
5499;SDS011;2772;42.700;23.304;2024-02-16T09:56:41;6.73;;;4.63;;
5499;SDS011;2772;42.700;23.304;2024-02-16T09:59:10;7.70;;;5.30;;
5499;SDS011;2772;42.700;23.304;2024-02-16T10:01:37;6.50;;;5.10;;
5499;SDS011;2772;42.700;23.304;2024-02-16T10:04:08;4.87;;;3.50;;
5499;SDS011;2772;42.700;23.304;2024-02-16T10:06:45;11.03;;;5.03;;
5499;SDS011;2772;42.700;23.304;2024-02-16T10:09:21;13.70;;;5.67;;
5499;SDS011;2772;42.700;23.304;2024-02-16T10:11:48;12.73;;;6.27;;
5499;SDS011;2772;42.700;23.304;2024-02-16T10:14:15;8.30;;;6.70;;
5499;SDS011;2772;42.700;23.304;2024-02-16T10:16:42;11.00;;;6.17;;
5499;SDS011;2772;42.700;23.304;2024-02-16T10:19:10;8.33;;;6.10;;
5499;SDS011;2772;42.700;23.304;2024-02-16T10:21:37;8.30;;;6.80;;
5499;SDS011;2772;42.700;23.304;2024-02-16T10:24:05;6.40;;;5.33;;
5499;SDS011;2772;42.700;23.304;2024-02-16T10:26:34;10.60;;;6.50;;
5499;SDS011;2772;42.700;23.304;2024-02-16T10:29:02;6.93;;;5.63;;
5499;SDS011;2772;42.700;23.304;2024-02-16T10:31:30;7.43;;;6.53;;
5499;SDS011;2772;42.700;23.304;2024-02-16T10:33:58;9.00;;;6.03;;
5499;SDS011;2772;42.700;23.304;2024-02-16T10:36:28;7.90;;;5.80;;
5499;SDS011;2772;42.700;23.304;2024-02-16T10:38:58;11.33;;;6.10;;
5499;SDS011;2772;42.700;23.304;2024-02-16T10:41:29;7.87;;;5.57;;
5499;SDS011;2772;42.700;23.304;2024-02-16T10:44:00;6.93;;;5.40;;
5499;SDS011;2772;42.700;23.304;2024-02-16T10:46:28;8.60;;;4.97;;
5499;SDS011;2772;42.700;23.304;2024-02-16T10:48:54;5.83;;;5.10;;
5499;SDS011;2772;42.700;23.304;2024-02-16T10:51:23;10.63;;;5.80;;
5499;SDS011;2772;42.700;23.304;2024-02-16T10:53:56;8.80;;;5.80;;
5499;SDS011;2772;42.700;23.304;2024-02-16T10:56:26;9.23;;;5.43;;
5499;SDS011;2772;42.700;23.304;2024-02-16T10:58:54;12.57;;;6.13;;
5499;SDS011;2772;42.700;23.304;2024-02-16T11:01:21;5.87;;;4.93;;
5499;SDS011;2772;42.700;23.304;2024-02-16T11:03:49;12.70;;;6.53;;
5499;SDS011;2772;42.700;23.304;2024-02-16T11:06:26;14.53;;;7.80;;
5499;SDS011;2772;42.700;23.304;2024-02-16T11:08:53;5.40;;;4.63;;
5499;SDS011;2772;42.700;23.304;2024-02-16T11:11:23;5.70;;;5.20;;
5499;SDS011;2772;42.700;23.304;2024-02-16T11:13:54;5.13;;;4.30;;
5499;SDS011;2772;42.700;23.304;2024-02-16T11:16:21;5.10;;;4.60;;
5499;SDS011;2772;42.700;23.304;2024-02-16T11:18:49;8.63;;;5.57;;
5499;SDS011;2772;42.700;23.304;2024-02-16T11:21:17;10.20;;;4.60;;
5499;SDS011;2772;42.700;23.304;2024-02-16T11:23:44;14.00;;;8.40;;
5499;SDS011;2772;42.700;23.304;2024-02-16T11:26:11;11.17;;;5.80;;
5499;SDS011;2772;42.700;23.304;2024-02-16T11:28:41;5.30;;;4.37;;
5499;SDS011;2772;42.700;23.304;2024-02-16T11:31:08;4.80;;;4.30;;
5499;SDS011;2772;42.700;23.304;2024-02-16T11:33:35;6.27;;;5.00;;
5499;SDS011;2772;42.700;23.304;2024-02-16T11:36:02;4.33;;;3.93;;
5499;SDS011;2772;42.700;23.304;2024-02-16T11:38:30;8.03;;;5.90;;
5499;SDS011;2772;42.700;23.304;2024-02-16T11:40:59;9.40;;;5.10;;
5499;SDS011;2772;42.700;23.304;2024-02-16T11:43:27;5.00;;;4.50;;
5499;SDS011;2772;42.700;23.304;2024-02-16T11:45:55;10.17;;;5.33;;
5499;SDS011;2772;42.700;23.304;2024-02-16T11:48:23;4.73;;;3.80;;
5499;SDS011;2772;42.700;23.304;2024-02-16T11:50:58;7.57;;;4.40;;
5499;SDS011;2772;42.700;23.304;2024-02-16T11:53:26;6.27;;;4.77;;
5499;SDS011;2772;42.700;23.304;2024-02-16T11:55:53;4.93;;;4.33;;
5499;SDS011;2772;42.700;23.304;2024-02-16T11:58:20;4.50;;;4.10;;
5499;SDS011;2772;42.700;23.304;2024-02-16T12:00:48;6.10;;;4.83;;
5499;SDS011;2772;42.700;23.304;2024-02-16T12:03:21;5.20;;;4.70;;
5499;SDS011;2772;42.700;23.304;2024-02-16T12:05:51;15.03;;;5.70;;
5499;SDS011;2772;42.700;23.304;2024-02-16T12:08:18;12.03;;;5.70;;
5499;SDS011;2772;42.700;23.304;2024-02-16T12:10:46;6.57;;;4.47;;
5499;SDS011;2772;42.700;23.304;2024-02-16T12:13:15;5.00;;;3.77;;
5499;SDS011;2772;42.700;23.304;2024-02-16T12:15:43;6.67;;;4.73;;
5499;SDS011;2772;42.700;23.304;2024-02-16T12:18:10;9.70;;;5.93;;
5499;SDS011;2772;42.700;23.304;2024-02-16T12:20:40;6.17;;;4.30;;
5499;SDS011;2772;42.700;23.304;2024-02-16T12:23:12;5.80;;;4.47;;
5499;SDS011;2772;42.700;23.304;2024-02-16T12:25:40;12.80;;;6.60;;
5499;SDS011;2772;42.700;23.304;2024-02-16T12:28:07;9.83;;;5.90;;
5499;SDS011;2772;42.700;23.304;2024-02-16T12:30:33;5.60;;;5.00;;
5499;SDS011;2772;42.700;23.304;2024-02-16T12:33:02;13.63;;;6.00;;
5499;SDS011;2772;42.700;23.304;2024-02-16T12:35:29;12.80;;;5.83;;
5499;SDS011;2772;42.700;23.304;2024-02-16T12:37:57;6.83;;;5.27;;
5499;SDS011;2772;42.700;23.304;2024-02-16T12:40:24;9.23;;;5.90;;
5499;SDS011;2772;42.700;23.304;2024-02-16T12:42:51;6.82;;;5.55;;
5499;SDS011;2772;42.700;23.304;2024-02-16T12:45:19;10.00;;;5.97;;
5499;SDS011;2772;42.700;23.304;2024-02-16T12:47:45;8.90;;;5.60;;
5499;SDS011;2772;42.700;23.304;2024-02-16T12:50:12;4.47;;;4.13;;
5499;SDS011;2772;42.700;23.304;2024-02-16T12:52:39;13.20;;;5.23;;
5499;SDS011;2772;42.700;23.304;2024-02-16T12:55:07;6.80;;;4.90;;
5499;SDS011;2772;42.700;23.304;2024-02-16T12:57:35;5.37;;;4.20;;
5499;SDS011;2772;42.700;23.304;2024-02-16T13:00:03;5.63;;;4.17;;
5499;SDS011;2772;42.700;23.304;2024-02-16T13:02:30;7.93;;;3.93;;
5499;SDS011;2772;42.700;23.304;2024-02-16T13:04:57;6.73;;;5.00;;
5499;SDS011;2772;42.700;23.304;2024-02-16T13:07:24;6.20;;;5.23;;
5499;SDS011;2772;42.700;23.304;2024-02-16T13:09:51;8.50;;;4.87;;
5499;SDS011;2772;42.700;23.304;2024-02-16T13:12:20;4.40;;;4.00;;
5499;SDS011;2772;42.700;23.304;2024-02-16T13:14:48;8.43;;;5.03;;
5499;SDS011;2772;42.700;23.304;2024-02-16T13:17:15;6.07;;;4.17;;
5499;SDS011;2772;42.700;23.304;2024-02-16T13:19:42;5.97;;;4.30;;
5499;SDS011;2772;42.700;23.304;2024-02-16T13:22:09;5.07;;;4.57;;
5499;SDS011;2772;42.700;23.304;2024-02-16T13:24:35;4.83;;;4.30;;
5499;SDS011;2772;42.700;23.304;2024-02-16T13:27:02;7.00;;;4.43;;
5499;SDS011;2772;42.700;23.304;2024-02-16T13:29:32;7.63;;;4.77;;
5499;SDS011;2772;42.700;23.304;2024-02-16T13:31:58;5.20;;;4.70;;
5499;SDS011;2772;42.700;23.304;2024-02-16T13:34:25;6.97;;;4.27;;
5499;SDS011;2772;42.700;23.304;2024-02-16T13:36:52;6.13;;;5.10;;
5499;SDS011;2772;42.700;23.304;2024-02-16T13:39:19;9.40;;;4.47;;
5499;SDS011;2772;42.700;23.304;2024-02-16T13:41:47;4.67;;;4.27;;
5499;SDS011;2772;42.700;23.304;2024-02-16T13:44:16;7.03;;;5.50;;
5499;SDS011;2772;42.700;23.304;2024-02-16T13:46:45;22.02;;;8.27;;
5499;SDS011;2772;42.700;23.304;2024-02-16T13:49:13;13.37;;;5.00;;
5499;SDS011;2772;42.700;23.304;2024-02-16T13:51:42;6.17;;;4.90;;
5499;SDS011;2772;42.700;23.304;2024-02-16T13:54:10;5.87;;;4.17;;
5499;SDS011;2772;42.700;23.304;2024-02-16T13:56:37;6.07;;;4.50;;
5499;SDS011;2772;42.700;23.304;2024-02-16T13:59:06;4.07;;;3.77;;
5499;SDS011;2772;42.700;23.304;2024-02-16T14:01:33;6.03;;;4.33;;
5499;SDS011;2772;42.700;23.304;2024-02-16T14:04:01;12.50;;;6.23;;
5499;SDS011;2772;42.700;23.304;2024-02-16T14:06:29;7.20;;;4.70;;
5499;SDS011;2772;42.700;23.304;2024-02-16T14:08:56;4.13;;;3.80;;
5499;SDS011;2772;42.700;23.304;2024-02-16T14:11:23;6.53;;;5.50;;
5499;SDS011;2772;42.700;23.304;2024-02-16T14:13:50;6.13;;;4.13;;
5499;SDS011;2772;42.700;23.304;2024-02-16T14:16:17;4.73;;;4.33;;
5499;SDS011;2772;42.700;23.304;2024-02-16T14:18:43;6.00;;;4.30;;
5499;SDS011;2772;42.700;23.304;2024-02-16T14:21:11;4.90;;;4.40;;
5499;SDS011;2772;42.700;23.304;2024-02-16T14:23:38;4.30;;;3.90;;
5499;SDS011;2772;42.700;23.304;2024-02-16T14:26:05;5.67;;;4.90;;
5499;SDS011;2772;42.700;23.304;2024-02-16T14:28:35;9.93;;;4.70;;
5499;SDS011;2772;42.700;23.304;2024-02-16T14:31:01;7.33;;;4.30;;
5499;SDS011;2772;42.700;23.304;2024-02-16T14:33:29;5.10;;;4.33;;
5499;SDS011;2772;42.700;23.304;2024-02-16T14:35:55;3.83;;;3.43;;
5499;SDS011;2772;42.700;23.304;2024-02-16T14:38:25;14.93;;;4.10;;
5499;SDS011;2772;42.700;23.304;2024-02-16T14:40:53;4.70;;;3.80;;
5499;SDS011;2772;42.700;23.304;2024-02-16T14:43:19;5.50;;;4.23;;
5499;SDS011;2772;42.700;23.304;2024-02-16T14:45:46;6.50;;;4.33;;
5499;SDS011;2772;42.700;23.304;2024-02-16T14:48:13;4.47;;;3.83;;